Time;durP1;ratioP1;P1;durP2;ratioP2;P2;SDS_P1;SDS_P2;PMS_P1;PMS_P2;Temp;Humidity;BMP_temperature;BMP_pressure;BME280_temperature;BME280_humidity;BME280_pressure;Samples;Min_cycle;Max_cycle;Signal;HPM_P1;HPM_P2
2023/01/02 00:00:19;;;;;;;14.80;8.25;;;9.00;99.90;;;;;;5130029;27;20047;-48
2023/01/02 00:02:45;;;;;;;14.10;8.80;;;9.10;99.90;;;;;;5129232;27;20050;-47
2023/01/02 00:05:11;;;;;;;15.10;10.02;;;9.10;99.90;;;;;;5097478;27;20058;-49
2023/01/02 00:07:37;;;;;;;16.17;11.30;;;9.20;99.90;;;;;;5112114;27;20126;-46
2023/01/02 00:10:03;;;;;;;18.70;11.48;;;9.30;99.90;;;;;;5111797;27;20115;-48
2023/01/02 00:12:29;;;;;;;21.50;12.65;;;9.30;99.90;;;;;;5110597;27;20245;-48
2023/01/02 00:14:54;;;;;;;25.73;14.48;;;9.50;99.90;;;;;;5115823;27;20050;-44
2023/01/02 00:17:20;;;;;;;20.25;14.35;;;9.40;99.90;;;;;;5129340;27;20046;-47
2023/01/02 00:19:46;;;;;;;21.33;15.43;;;9.70;99.90;;;;;;5104361;27;20099;-51
2023/01/02 00:22:11;;;;;;;20.48;14.60;;;9.80;99.90;;;;;;5122720;27;20053;-47
2023/01/02 00:24:37;;;;;;;21.27;15.05;;;9.80;99.90;;;;;;5124242;27;20047;-46
2023/01/02 00:27:03;;;;;;;19.95;15.18;;;9.90;99.90;;;;;;5136903;27;20043;-46
2023/01/02 00:29:28;;;;;;;20.25;14.27;;;9.90;99.90;;;;;;5099073;27;20153;-45
2023/01/02 00:31:54;;;;;;;20.48;13.18;;;9.70;99.90;;;;;;5129109;27;20061;-49
2023/01/02 00:34:20;;;;;;;18.20;13.43;;;9.70;99.90;;;;;;5121242;27;20158;-46
2023/01/02 00:36:45;;;;;;;16.30;12.98;;;9.70;99.90;;;;;;5135955;27;20050;-44
2023/01/02 00:39:11;;;;;;;16.95;12.82;;;10.00;99.90;;;;;;5129618;27;20043;-51
2023/01/02 00:41:37;;;;;;;15.82;11.73;;;9.90;99.90;;;;;;5112002;27;20045;-44
2023/01/02 00:44:02;;;;;;;13.95;11.38;;;9.80;99.90;;;;;;5124941;27;20375;-47
2023/01/02 00:46:28;;;;;;;16.20;11.07;;;10.00;99.90;;;;;;5136293;27;20456;-48
2023/01/02 00:48:53;;;;;;;13.68;11.25;;;9.80;99.90;;;;;;5128744;27;20450;-48
2023/01/02 00:51:19;;;;;;;14.80;11.40;;;9.90;99.90;;;;;;5129777;27;20138;-48
2023/01/02 00:53:45;;;;;;;15.45;12.05;;;9.90;99.90;;;;;;5103605;27;20043;-48
2023/01/02 00:56:10;;;;;;;17.67;12.85;;;10.00;99.90;;;;;;5134491;27;20035;-44
2023/01/02 00:58:36;;;;;;;15.50;12.10;;;10.10;99.90;;;;;;5117246;27;20043;-47
2023/01/02 01:01:02;;;;;;;17.45;11.93;;;9.80;99.90;;;;;;5129048;27;20062;-48
2023/01/02 01:03:28;;;;;;;21.20;13.98;;;10.10;99.90;;;;;;5134776;27;20054;-47
2023/01/02 01:05:53;;;;;;;19.70;13.40;;;9.80;99.90;;;;;;5122544;27;20101;-49
2023/01/02 01:08:19;;;;;;;17.25;13.05;;;10.00;99.90;;;;;;5136675;27;20527;-44
2023/01/02 01:10:45;;;;;;;20.85;13.18;;;9.90;99.90;;;;;;5136221;27;20325;-47
2023/01/02 01:13:10;;;;;;;18.20;12.85;;;9.90;99.90;;;;;;5129900;27;20043;-48
2023/01/02 01:15:36;;;;;;;21.23;13.68;;;10.10;99.90;;;;;;5096834;27;20066;-47
2023/01/02 01:18:02;;;;;;;21.48;14.82;;;9.90;99.90;;;;;;5121043;27;20378;-47
2023/01/02 01:20:27;;;;;;;18.02;12.75;;;10.10;99.90;;;;;;5104704;27;20080;-48
2023/01/02 01:22:53;;;;;;;20.67;14.88;;;10.10;99.90;;;;;;5126284;27;20047;-44
2023/01/02 01:25:19;;;;;;;18.58;14.85;;;10.00;99.90;;;;;;5110319;27;20058;-46
2023/01/02 01:27:45;;;;;;;20.45;15.35;;;9.90;99.90;;;;;;5121648;27;20425;-46
2023/01/02 01:30:11;;;;;;;20.48;15.32;;;10.10;99.90;;;;;;5105777;27;20089;-44
2023/01/02 01:32:36;;;;;;;20.25;15.73;;;9.90;99.90;;;;;;5119998;27;20113;-48
2023/01/02 01:35:02;;;;;;;25.67;17.52;;;10.00;99.90;;;;;;5135807;27;20621;-44
2023/01/02 01:37:28;;;;;;;23.92;18.10;;;9.90;99.90;;;;;;5103339;27;20042;-50
2023/01/02 01:39:54;;;;;;;27.05;18.23;;;10.00;99.90;;;;;;5135730;27;20098;-50
2023/01/02 01:42:19;;;;;;;26.58;19.38;;;10.10;99.90;;;;;;5131649;27;20054;-45
2023/01/02 01:44:53;;;;;;;27.92;19.48;;;9.90;99.90;;;;;;5114624;27;20515;-48
2023/01/02 01:47:46;;;;;;;26.27;20.30;;;10.10;99.90;;;;;;5121937;27;20042;-48
2023/01/02 01:50:28;;;;;;;26.65;20.45;;;10.20;99.90;;;;;;5117966;27;20057;-49
2023/01/02 01:53:03;;;;;;;27.48;21.63;;;10.10;99.90;;;;;;5127674;27;20046;-45
2023/01/02 01:56:00;;;;;;;27.20;21.10;;;10.30;99.90;;;;;;5112183;28;20481;-46
2023/01/02 01:58:32;;;;;;;35.33;22.95;;;10.30;99.90;;;;;;5121438;27;20679;-47
2023/01/02 02:00:58;;;;;;;28.05;22.33;;;10.10;99.90;;;;;;5105217;27;20247;-48
2023/01/02 02:03:28;;;;;;;28.42;22.42;;;10.30;99.90;;;;;;5118884;27;20481;-46
2023/01/02 02:05:56;;;;;;;31.83;22.33;;;10.20;99.90;;;;;;5125700;27;20100;-48
2023/01/02 02:08:34;;;;;;;28.38;20.65;;;10.10;99.90;;;;;;5139899;27;20510;-44
2023/01/02 02:11:01;;;;;;;27.20;21.73;;;10.20;99.90;;;;;;5139727;27;20050;-45
2023/01/02 02:13:30;;;;;;;33.47;22.85;;;10.40;99.90;;;;;;5130205;27;20126;-45
2023/01/02 02:16:33;;;;;;;34.05;24.15;;;10.50;99.90;;;;;;5120923;27;20058;-45
2023/01/02 02:19:04;;;;;;;33.33;24.02;;;10.50;99.90;;;;;;5139700;27;20533;-46
2023/01/02 02:21:54;;;;;;;30.30;22.08;;;10.30;99.90;;;;;;5100854;27;20074;-45
2023/01/02 02:24:58;;;;;;;27.17;20.13;;;10.40;99.90;;;;;;5134363;27;20560;-47
2023/01/02 02:27:50;;;;;;;29.33;21.55;;;10.50;99.90;;;;;;5132049;27;20047;-47
2023/01/02 02:30:22;;;;;;;26.58;21.17;;;10.20;99.90;;;;;;5074581;28;20139;-47
2023/01/02 02:33:03;;;;;;;27.90;20.02;;;10.30;99.90;;;;;;5059805;28;20185;-46
2023/01/02 02:35:52;;;;;;;33.05;21.75;;;10.30;99.90;;;;;;5074449;28;20914;-47
2023/01/02 02:38:30;;;;;;;30.80;20.70;;;10.50;99.90;;;;;;5014302;28;20069;-49
2023/01/02 02:41:15;;;;;;;24.98;19.92;;;10.40;99.90;;;;;;5014634;28;20416;-48
2023/01/02 02:44:02;;;;;;;26.23;20.70;;;10.40;99.90;;;;;;4974355;28;20145;-48
2023/01/02 02:46:48;;;;;;;30.67;22.83;;;10.40;99.90;;;;;;4975069;28;20096;-46
2023/01/02 02:49:32;;;;;;;30.75;23.75;;;10.50;99.90;;;;;;4958742;28;20555;-46
2023/01/02 02:51:57;;;;;;;33.47;23.55;;;10.60;99.90;;;;;;4974227;28;20619;-45
2023/01/02 02:54:35;;;;;;;32.92;23.38;;;10.50;99.90;;;;;;4974786;28;20181;-48
2023/01/02 02:57:02;;;;;;;31.48;22.77;;;10.30;99.90;;;;;;4974806;28;20246;-46
2023/01/02 02:59:29;;;;;;;30.67;22.52;;;10.30;99.90;;;;;;4958484;28;20050;-49
2023/01/02 03:01:54;;;;;;;33.42;22.58;;;10.50;99.90;;;;;;4965872;28;20074;-45
2023/01/02 03:04:22;;;;;;;32.80;23.38;;;10.40;99.90;;;;;;4972972;28;20520;-45
2023/01/02 03:07:03;;;;;;;32.95;24.80;;;10.30;99.90;;;;;;4979785;28;20061;-47
2023/01/02 03:09:51;;;;;;;33.63;23.27;;;10.50;99.90;;;;;;5009566;28;20245;-45
2023/01/02 03:12:41;;;;;;;31.42;22.48;;;10.40;99.90;;;;;;5011858;28;20049;-45
2023/01/02 03:15:16;;;;;;;32.90;23.50;;;10.60;99.90;;;;;;5029561;28;20099;-45
2023/01/02 03:17:56;;;;;;;36.75;23.98;;;10.40;99.90;;;;;;5036852;28;20847;-49
2023/01/02 03:20:27;;;;;;;30.77;24.52;;;10.50;99.90;;;;;;5077798;27;20063;-45
2023/01/02 03:22:58;;;;;;;34.70;24.38;;;10.70;99.90;;;;;;5127478;27;20054;-46
2023/01/02 03:25:25;;;;;;;37.55;25.02;;;10.70;99.90;;;;;;5131139;27;20055;-48
2023/01/02 03:27:51;;;;;;;37.47;22.67;;;10.70;99.90;;;;;;5124742;27;20055;-47
2023/01/02 03:30:20;;;;;;;32.03;23.67;;;10.50;99.90;;;;;;5125747;27;20050;-45
2023/01/02 03:32:56;;;;;;;36.60;23.73;;;10.50;99.90;;;;;;5116686;27;20544;-45
2023/01/02 03:35:51;;;;;;;33.72;24.00;;;10.50;99.90;;;;;;5132403;27;20091;-45
2023/01/02 03:38:28;;;;;;;33.10;22.85;;;10.60;99.90;;;;;;5134617;27;20054;-45
2023/01/02 03:41:17;;;;;;;40.08;22.77;;;10.40;99.90;;;;;;5130261;27;20054;-46
2023/01/02 03:43:45;;;;;;;39.67;23.67;;;10.70;99.90;;;;;;5025412;28;20071;-46
2023/01/02 03:46:37;;;;;;;40.08;23.65;;;10.60;99.90;;;;;;5016344;28;20599;-46
2023/01/02 03:49:15;;;;;;;40.97;23.55;;;10.50;99.90;;;;;;5024691;28;20057;-50
2023/01/02 03:51:41;;;;;;;38.20;24.15;;;10.40;99.90;;;;;;5015534;28;20664;-49
2023/01/02 03:54:09;;;;;;;39.83;23.70;;;10.60;99.90;;;;;;5005886;28;20057;-48
2023/01/02 03:56:55;;;;;;;37.65;23.35;;;10.70;99.90;;;;;;5028305;28;20124;-45
2023/01/02 03:59:26;;;;;;;39.65;24.48;;;10.50;99.90;;;;;;5020041;28;20049;-48
2023/01/02 04:02:03;;;;;;;43.08;23.45;;;10.40;99.90;;;;;;5018386;28;20057;-46
2023/01/02 04:04:55;;;;;;;40.33;23.60;;;10.60;99.90;;;;;;5002567;28;20259;-47
2023/01/02 04:07:39;;;;;;;46.53;23.75;;;10.40;99.90;;;;;;5020944;28;20097;-47
2023/01/02 04:10:07;;;;;;;40.97;24.35;;;10.70;99.90;;;;;;5020717;28;20056;-48
2023/01/02 04:12:38;;;;;;;39.90;22.65;;;10.50;99.90;;;;;;5017029;28;20057;-49
2023/01/02 04:15:10;;;;;;;35.38;22.98;;;10.70;99.90;;;;;;5024792;28;20244;-48
2023/01/02 04:17:43;;;;;;;40.05;23.80;;;10.50;99.90;;;;;;5014847;28;20045;-45
2023/01/02 04:20:18;;;;;;;45.40;23.50;;;10.50;99.90;;;;;;5051161;27;20067;-49
2023/01/02 04:23:21;;;;;;;30.95;22.63;;;10.70;99.90;;;;;;5126532;27;20553;-47
2023/01/02 04:25:54;;;;;;;40.03;22.30;;;10.70;99.90;;;;;;5097460;27;20454;-46
2023/01/02 04:28:30;;;;;;;39.58;24.02;;;10.70;99.90;;;;;;5136485;27;20042;-47
2023/01/02 04:31:06;;;;;;;32.60;21.98;;;10.50;99.90;;;;;;5117970;27;20089;-45
2023/01/02 04:33:37;;;;;;;29.73;20.65;;;10.60;99.90;;;;;;5127424;27;20795;-45
2023/01/02 04:36:11;;;;;;;34.33;22.30;;;10.60;99.90;;;;;;5122074;27;20475;-49
2023/01/02 04:38:38;;;;;;;35.78;21.42;;;10.70;99.90;;;;;;5116942;27;20047;-47
2023/01/02 04:41:05;;;;;;;37.85;21.52;;;10.60;99.90;;;;;;5126881;27;20116;-48
2023/01/02 04:43:30;;;;;;;37.58;20.90;;;10.70;99.90;;;;;;5116784;27;20062;-47
2023/01/02 04:45:56;;;;;;;32.88;20.27;;;10.70;99.90;;;;;;5104927;27;20414;-47
2023/01/02 04:48:21;;;;;;;29.58;19.48;;;10.50;99.90;;;;;;5136086;27;20042;-49
2023/01/02 04:50:50;;;;;;;37.65;20.67;;;10.60;99.90;;;;;;5127243;27;20579;-45
2023/01/02 04:53:16;;;;;;;38.72;21.70;;;10.50;99.90;;;;;;5112355;27;20516;-45
2023/01/02 04:55:41;;;;;;;38.33;20.35;;;10.50;99.90;;;;;;5133833;27;20086;-48
2023/01/02 04:58:07;;;;;;;36.25;20.65;;;10.70;99.90;;;;;;5132132;27;20091;-47
2023/01/02 05:00:33;;;;;;;22.17;16.02;;;10.70;99.90;;;;;;5122593;27;20224;-46
2023/01/02 05:03:02;;;;;;;25.70;17.52;;;10.70;99.90;;;;;;5115914;27;20183;-46
2023/01/02 05:05:27;;;;;;;30.73;18.65;;;10.60;99.90;;;;;;5105140;28;20104;-47
2023/01/02 05:07:53;;;;;;;31.80;19.38;;;10.70;99.90;;;;;;5112605;27;20202;-49
2023/01/02 05:10:19;;;;;;;26.17;17.90;;;10.70;99.90;;;;;;5135318;27;20050;-47
2023/01/02 05:12:45;;;;;;;29.55;17.50;;;10.70;99.90;;;;;;5131997;27;20615;-47
2023/01/02 05:15:11;;;;;;;25.05;16.80;;;10.70;99.90;;;;;;5115572;27;20046;-45
2023/01/02 05:17:41;;;;;;;21.38;15.23;;;10.70;99.90;;;;;;5117385;27;20082;-46
2023/01/02 05:20:09;;;;;;;22.10;16.58;;;10.60;99.90;;;;;;5135888;27;20043;-45
2023/01/02 05:25:23;;;;;;;26.38;16.75;;;10.70;99.90;;;;;;5110287;27;20059;-45
2023/01/02 05:27:52;;;;;;;26.08;17.17;;;10.70;99.90;;;;;;5135905;27;20280;-46
2023/01/02 05:30:18;;;;;;;27.63;18.10;;;10.70;99.90;;;;;;5122047;27;20047;-47
2023/01/02 05:32:43;;;;;;;24.38;18.58;;;10.80;99.90;;;;;;5120807;27;20138;-49
2023/01/02 05:35:09;;;;;;;35.75;19.15;;;10.50;99.90;;;;;;5122898;27;20498;-47
2023/01/02 05:37:35;;;;;;;28.05;19.60;;;10.80;99.90;;;;;;5123077;27;20537;-46
2023/01/02 05:40:00;;;;;;;26.65;20.10;;;10.50;99.90;;;;;;5122313;27;20047;-46
2023/01/02 05:42:26;;;;;;;32.88;21.45;;;10.80;99.90;;;;;;5112338;28;20162;-47
2023/01/02 05:44:52;;;;;;;34.50;22.92;;;10.50;99.90;;;;;;5115292;27;20058;-47
2023/01/02 05:47:17;;;;;;;30.67;22.23;;;10.60;99.90;;;;;;5128741;27;20039;-45
2023/01/02 05:49:43;;;;;;;28.80;20.30;;;10.70;99.90;;;;;;5110590;27;20042;-50
2023/01/02 05:52:09;;;;;;;34.08;23.75;;;10.60;99.90;;;;;;5135154;27;20504;-48
2023/01/02 05:54:34;;;;;;;32.97;22.85;;;10.80;99.90;;;;;;5117485;27;20704;-48
2023/01/02 05:57:00;;;;;;;38.38;22.88;;;10.70;99.90;;;;;;5132006;27;20125;-46
2023/01/02 05:59:26;;;;;;;30.33;21.55;;;10.60;99.90;;;;;;5121558;27;20485;-46
2023/01/02 06:01:51;;;;;;;41.97;24.17;;;10.70;99.90;;;;;;5120905;27;20046;-48
2023/01/02 06:04:17;;;;;;;35.75;22.35;;;10.70;99.90;;;;;;5121696;27;20097;-47
2023/01/02 06:06:43;;;;;;;32.03;20.20;;;10.70;99.90;;;;;;5128424;27;20509;-45
2023/01/02 06:09:12;;;;;;;27.10;17.52;;;10.80;99.90;;;;;;5129184;27;20147;-46
2023/01/02 06:11:38;;;;;;;27.15;18.92;;;10.70;99.90;;;;;;5113813;27;20497;-47
2023/01/02 06:14:03;;;;;;;20.13;14.57;;;10.50;99.90;;;;;;5115211;27;20094;-51
2023/01/02 06:16:29;;;;;;;20.38;14.02;;;10.50;99.90;;;;;;5103159;27;20054;-46
2023/01/02 06:18:55;;;;;;;20.13;13.95;;;10.30;99.90;;;;;;5121394;27;20050;-48
2023/01/02 06:21:22;;;;;;;15.60;13.30;;;10.50;99.90;;;;;;5128521;27;20085;-48
2023/01/02 06:23:52;;;;;;;18.20;13.40;;;10.50;99.90;;;;;;5127274;27;20121;-46
2023/01/02 06:26:19;;;;;;;16.67;12.30;;;10.20;99.90;;;;;;5127875;27;20593;-46
2023/01/02 06:28:47;;;;;;;17.27;13.13;;;10.30;99.90;;;;;;5128369;27;20492;-47
2023/01/02 06:31:15;;;;;;;16.42;13.23;;;10.10;99.90;;;;;;5116744;27;20039;-49
2023/01/02 06:33:41;;;;;;;15.18;12.60;;;10.30;99.90;;;;;;5113872;27;20058;-49
2023/01/02 06:36:16;;;;;;;13.63;11.05;;;10.00;99.90;;;;;;5122692;27;20039;-45
2023/01/02 06:38:42;;;;;;;13.65;10.73;;;10.00;99.90;;;;;;5130822;27;20051;-48
2023/01/02 06:41:08;;;;;;;17.33;11.57;;;10.20;99.90;;;;;;5105762;27;20073;-48
2023/01/02 06:43:35;;;;;;;19.17;12.73;;;10.00;99.90;;;;;;5126317;27;20425;-46
2023/01/02 06:46:03;;;;;;;24.40;13.13;;;10.00;99.90;;;;;;5124478;27;20077;-47
2023/01/02 06:48:31;;;;;;;29.05;13.60;;;10.00;99.90;;;;;;5124034;27;20047;-46
2023/01/02 06:50:58;;;;;;;24.48;13.18;;;9.70;99.90;;;;;;5127657;27;20461;-45
2023/01/02 06:53:24;;;;;;;23.80;10.95;;;9.60;99.90;;;;;;5129640;27;20602;-47
2023/01/02 06:55:59;;;;;;;16.95;8.27;;;9.70;99.90;;;;;;5120924;27;20130;-46
2023/01/02 06:58:29;;;;;;;19.75;7.18;;;9.50;99.90;;;;;;5125572;27;20046;-48
2023/01/02 07:00:54;;;;;;;10.00;5.30;;;9.20;99.90;;;;;;5125305;27;20085;-45
2023/01/02 07:03:20;;;;;;;8.85;3.35;;;9.10;99.90;;;;;;5130279;27;20124;-48
2023/01/02 07:05:46;;;;;;;7.85;3.88;;;8.90;99.90;;;;;;5117394;27;20094;-49
2023/01/02 07:08:12;;;;;;;9.73;3.88;;;8.90;99.90;;;;;;5130794;27;20097;-49
2023/01/02 07:10:37;;;;;;;8.75;3.92;;;8.80;99.90;;;;;;5099196;27;20055;-45
2023/01/02 07:13:03;;;;;;;7.50;4.60;;;8.90;99.90;;;;;;5131695;27;20065;-46
2023/01/02 07:15:30;;;;;;;9.00;3.63;;;8.80;99.90;;;;;;5117577;27;20497;-49
2023/01/02 07:17:57;;;;;;;9.23;3.55;;;8.60;99.90;;;;;;5117587;27;20534;-48
2023/01/02 07:20:22;;;;;;;7.38;2.80;;;8.80;99.90;;;;;;5137690;27;20051;-45
2023/01/02 07:22:50;;;;;;;7.72;2.50;;;8.50;99.90;;;;;;5132032;27;20039;-44
2023/01/02 07:25:16;;;;;;;8.60;2.55;;;8.50;99.90;;;;;;5129829;27;20051;-46
2023/01/02 07:27:42;;;;;;;5.88;2.03;;;8.50;99.90;;;;;;5114720;27;20070;-46
2023/01/02 07:30:08;;;;;;;4.38;2.15;;;8.40;99.90;;;;;;5118872;27;20069;-45
2023/01/02 07:32:34;;;;;;;8.90;2.33;;;8.40;99.90;;;;;;5121223;27;20050;-48
2023/01/02 07:34:59;;;;;;;4.57;2.38;;;8.40;99.90;;;;;;5137726;27;20047;-44
2023/01/02 07:37:25;;;;;;;6.00;2.20;;;8.60;99.90;;;;;;5137608;27;20544;-45
2023/01/02 07:39:51;;;;;;;10.57;2.88;;;8.50;99.90;;;;;;5119142;27;20047;-45
2023/01/02 07:42:16;;;;;;;5.70;2.47;;;8.60;99.90;;;;;;5133876;27;20567;-47
2023/01/02 07:44:42;;;;;;;5.20;2.47;;;8.50;99.90;;;;;;5129944;27;20049;-52
2023/01/02 07:47:07;;;;;;;3.88;2.30;;;8.30;99.90;;;;;;5137414;27;20049;-48
2023/01/02 07:49:33;;;;;;;7.15;2.33;;;8.40;99.90;;;;;;5135095;27;20073;-46
2023/01/02 07:51:59;;;;;;;4.20;2.17;;;8.40;99.90;;;;;;5130699;27;20850;-47
2023/01/02 07:54:24;;;;;;;8.98;2.80;;;8.30;99.90;;;;;;5128899;27;20042;-45
2023/01/02 07:56:51;;;;;;;6.75;2.33;;;8.40;99.90;;;;;;5130719;27;20084;-45
2023/01/02 07:59:17;;;;;;;6.63;2.10;;;8.40;99.90;;;;;;5115840;27;20035;-46
2023/01/02 08:01:42;;;;;;;5.40;2.33;;;8.40;99.90;;;;;;5133752;27;20431;-48
2023/01/02 08:04:08;;;;;;;5.63;2.40;;;8.40;99.90;;;;;;5136384;27;20046;-47
2023/01/02 08:06:34;;;;;;;3.40;2.13;;;8.20;99.90;;;;;;5135132;27;20046;-47
2023/01/02 08:08:59;;;;;;;3.72;2.17;;;8.30;99.90;;;;;;5116701;27;20065;-45
2023/01/02 08:11:25;;;;;;;7.15;3.35;;;8.40;99.90;;;;;;5116376;27;20508;-47
2023/01/02 08:13:51;;;;;;;3.83;2.10;;;8.30;99.90;;;;;;5118522;27;20077;-46
2023/01/02 08:16:19;;;;;;;5.72;2.35;;;8.40;99.90;;;;;;5117956;27;20138;-46
2023/01/02 08:18:45;;;;;;;5.10;2.40;;;8.30;99.90;;;;;;5120039;27;20461;-45
2023/01/02 08:21:12;;;;;;;5.00;2.42;;;8.20;99.90;;;;;;5128331;27;20444;-46
2023/01/02 08:23:37;;;;;;;5.13;2.78;;;8.30;99.90;;;;;;5127969;27;20082;-47
2023/01/02 08:26:05;;;;;;;8.05;3.70;;;8.40;99.90;;;;;;5108588;27;20053;-48
2023/01/02 08:28:31;;;;;;;7.25;3.88;;;8.30;99.90;;;;;;5120313;27;20051;-49
2023/01/02 08:30:57;;;;;;;7.25;3.60;;;8.20;99.90;;;;;;5121225;27;20055;-48
2023/01/02 08:33:23;;;;;;;8.73;4.38;;;8.30;99.90;;;;;;5125118;27;20426;-48
2023/01/02 08:35:49;;;;;;;10.32;4.15;;;8.30;99.90;;;;;;5095588;27;20055;-47
2023/01/02 08:38:14;;;;;;;12.30;5.15;;;8.20;99.90;;;;;;5122762;27;20473;-45
2023/01/02 08:40:40;;;;;;;12.40;6.93;;;8.40;99.90;;;;;;5128775;27;20114;-49
2023/01/02 08:43:06;;;;;;;9.32;5.35;;;8.30;99.90;;;;;;5124946;27;20089;-45
2023/01/02 08:45:32;;;;;;;11.50;5.70;;;8.20;99.90;;;;;;5123693;27;20125;-47
2023/01/02 08:47:58;;;;;;;8.88;5.22;;;8.20;99.90;;;;;;5129048;27;20046;-47
2023/01/02 08:50:23;;;;;;;13.05;5.57;;;8.30;99.90;;;;;;5122813;27;20928;-45
2023/01/02 08:52:49;;;;;;;12.77;5.40;;;8.30;99.90;;;;;;5121844;27;20130;-47
2023/01/02 08:55:15;;;;;;;14.90;5.00;;;8.30;99.90;;;;;;5124667;27;20049;-45
2023/01/02 08:57:41;;;;;;;13.27;5.57;;;8.30;99.90;;;;;;5126883;27;20042;-45
2023/01/02 09:00:07;;;;;;;10.75;5.43;;;8.40;99.90;;;;;;5103938;27;20046;-47
2023/01/02 09:02:33;;;;;;;11.68;4.97;;;8.20;99.90;;;;;;5128855;27;20867;-46
2023/01/02 09:04:58;;;;;;;13.02;5.53;;;8.20;99.90;;;;;;5124407;27;20308;-46
2023/01/02 09:07:25;;;;;;;12.15;5.28;;;8.30;99.90;;;;;;5130450;27;20501;-45
2023/01/02 09:09:50;;;;;;;8.90;4.20;;;8.30;99.90;;;;;;5127586;27;20049;-44
2023/01/02 09:12:16;;;;;;;9.20;4.38;;;8.20;99.90;;;;;;5134841;27;20050;-45
2023/01/02 09:14:42;;;;;;;9.82;3.88;;;8.30;99.90;;;;;;5115737;27;20115;-47
2023/01/02 09:17:08;;;;;;;8.45;4.20;;;8.40;99.90;;;;;;5125197;27;20110;-46
2023/01/02 09:19:34;;;;;;;6.80;4.20;;;8.40;99.90;;;;;;5135052;27;20648;-49
2023/01/02 09:22:00;;;;;;;10.32;4.55;;;8.30;99.90;;;;;;5116448;27;20050;-48
2023/01/02 09:24:26;;;;;;;10.57;4.45;;;8.40;99.90;;;;;;5113199;27;20057;-48
2023/01/02 09:26:52;;;;;;;10.90;4.63;;;8.50;99.90;;;;;;5107637;27;20389;-48
2023/01/02 09:29:18;;;;;;;11.98;4.70;;;8.30;99.90;;;;;;5118875;27;20046;-46
2023/01/02 09:31:44;;;;;;;11.27;4.78;;;8.40;99.90;;;;;;5127339;27;20487;-45
2023/01/02 09:34:10;;;;;;;10.80;4.32;;;8.40;99.90;;;;;;5121677;27;20275;-48
2023/01/02 09:36:36;;;;;;;11.38;4.57;;;8.30;99.90;;;;;;5106633;27;20043;-45
2023/01/02 09:39:03;;;;;;;13.00;5.60;;;8.50;99.90;;;;;;5132193;27;20103;-45
2023/01/02 09:41:56;;;;;;;13.38;4.68;;;8.30;99.90;;;;;;5115750;27;20571;-48
2023/01/02 09:44:34;;;;;;;6.80;3.42;;;8.50;99.90;;;;;;5123108;27;20126;-46
2023/01/02 09:47:07;;;;;;;8.02;3.38;;;8.30;99.90;;;;;;5100736;27;20051;-46
2023/01/02 09:49:49;;;;;;;7.05;2.83;;;8.50;99.90;;;;;;5125646;27;20598;-47
2023/01/02 09:52:27;;;;;;;7.60;2.85;;;8.40;99.90;;;;;;5120454;27;20473;-48
2023/01/02 09:54:52;;;;;;;5.43;2.90;;;8.50;99.90;;;;;;5102831;27;20043;-45
2023/01/02 09:57:27;;;;;;;5.57;3.00;;;8.40;99.90;;;;;;5122978;27;20049;-45
2023/01/02 10:00:11;;;;;;;6.93;3.92;;;8.50;99.90;;;;;;5114638;27;20513;-47
2023/01/02 10:03:01;;;;;;;8.50;3.50;;;8.60;99.90;;;;;;5103275;27;20172;-45
2023/01/02 10:05:45;;;;;;;5.90;3.60;;;8.50;99.90;;;;;;5114272;27;20047;-48
2023/01/02 10:08:10;;;;;;;;;;;8.50;99.90;;;;;;5125647;27;20421;-45
2023/01/02 10:10:42;;;;;;;4.85;3.00;;;8.50;99.90;;;;;;5114321;27;20022;-45
2023/01/02 10:13:29;;;;;;;6.53;2.92;;;8.70;99.90;;;;;;5105503;27;20456;-47
2023/01/02 10:15:56;;;;;;;7.60;3.10;;;8.60;99.90;;;;;;5122454;27;20165;-45
2023/01/02 10:18:40;;;;;;;6.82;3.63;;;8.50;99.90;;;;;;5113819;27;20489;-45
2023/01/02 10:21:23;;;;;;;5.35;3.40;;;8.40;99.90;;;;;;5095055;27;20763;-48
2023/01/02 10:23:54;;;;;;;5.63;3.15;;;8.50;99.90;;;;;;5117658;27;20050;-46
2023/01/02 10:26:27;;;;;;;7.57;4.05;;;8.40;99.90;;;;;;5123109;27;20182;-47
2023/01/02 10:29:17;;;;;;;7.70;3.60;;;8.50;99.90;;;;;;5123919;27;20043;-45
2023/01/02 10:31:50;;;;;;;11.15;4.70;;;8.30;99.90;;;;;;5117806;27;20051;-48
2023/01/02 10:34:20;;;;;;;9.05;3.92;;;8.30;99.90;;;;;;5121017;27;20416;-45
2023/01/02 10:36:47;;;;;;;10.93;3.90;;;8.40;99.90;;;;;;5135457;27;20593;-47
2023/01/02 10:39:21;;;;;;;12.27;4.40;;;8.30;99.90;;;;;;5124739;27;20050;-49
2023/01/02 10:41:50;;;;;;;8.90;3.90;;;8.40;99.90;;;;;;5129129;27;20481;-47
2023/01/02 10:44:27;;;;;;;10.05;4.22;;;8.40;99.90;;;;;;5132348;27;20408;-45
2023/01/02 10:46:54;;;;;;;8.30;3.75;;;8.40;99.90;;;;;;5123672;27;20051;-48
2023/01/02 10:49:22;;;;;;;8.55;4.05;;;8.50;99.90;;;;;;5138418;27;20043;-45
2023/01/02 10:52:06;;;;;;;11.85;3.60;;;8.40;99.90;;;;;;5122300;27;20047;-45
2023/01/02 10:54:46;;;;;;;;;;;8.40;99.90;;;;;;5129169;27;20047;-47
2023/01/02 10:57:19;;;;;;;9.55;2.95;;;8.40;99.90;;;;;;5136779;27;19944;-47
2023/01/02 10:59:45;;;;;;;11.60;3.10;;;8.50;99.90;;;;;;5123883;27;20058;-48
2023/01/02 11:02:36;;;;;;;10.48;3.63;;;8.50;99.90;;;;;;5129921;27;20043;-48
2023/01/02 11:05:04;;;;;;;8.40;3.58;;;8.40;99.90;;;;;;5127878;27;20051;-50
2023/01/02 11:07:33;;;;;;;9.38;3.13;;;8.30;99.90;;;;;;5125647;27;20945;-47
2023/01/02 11:10:00;;;;;;;14.40;3.20;;;8.40;99.90;;;;;;5132519;27;20379;-48
2023/01/02 11:12:25;;;;;;;11.05;2.92;;;8.50;99.90;;;;;;5116856;27;20427;-45
2023/01/02 11:14:52;;;;;;;10.90;3.75;;;8.50;99.90;;;;;;5122017;27;20039;-48
2023/01/02 11:17:22;;;;;;;13.07;3.28;;;8.40;99.90;;;;;;5119156;27;20430;-45
2023/01/02 11:19:51;;;;;;;7.20;2.63;;;8.50;99.90;;;;;;5124026;27;20039;-46
2023/01/02 11:22:22;;;;;;;11.05;3.08;;;8.70;99.90;;;;;;5117818;27;20058;-48
2023/01/02 11:25:01;;;;;;;11.65;2.67;;;8.70;99.90;;;;;;5137090;27;20638;-46
2023/01/02 11:27:32;;;;;;;10.40;3.00;;;8.60;99.90;;;;;;5124021;27;20492;-49
2023/01/02 11:29:59;;;;;;;9.70;2.40;;;8.70;99.90;;;;;;5117007;27;20536;-46
2023/01/02 11:32:37;;;;;;;11.52;2.50;;;8.80;99.90;;;;;;5133497;27;21364;-47
2023/01/02 11:35:04;;;;;;;10.40;2.97;;;8.80;99.90;;;;;;5129048;27;20652;-49
2023/01/02 11:37:30;;;;;;;11.30;2.90;;;8.90;99.90;;;;;;5124380;27;20042;-46
2023/01/02 11:40:22;;;;;;;8.90;2.80;;;8.90;99.90;;;;;;5137340;27;20046;-49
2023/01/02 11:45:36;;;;;;;9.60;2.53;;;8.90;99.90;;;;;;5133519;27;20528;-48
2023/01/02 11:48:19;;;;;;;10.65;2.65;;;8.90;99.90;;;;;;5103923;27;20076;-47
2023/01/02 11:50:45;;;;;;;;;;;8.80;99.90;;;;;;5125483;27;20050;-46
2023/01/02 11:53:11;;;;;;;9.57;2.83;;;8.80;99.90;;;;;;5117223;27;19915;-48
2023/01/02 11:56:05;;;;;;;10.63;2.80;;;8.90;99.90;;;;;;5116137;27;20084;-45
2023/01/02 11:58:50;;;;;;;9.93;2.03;;;8.90;99.90;;;;;;5049549;28;20322;-48
2023/01/02 12:01:27;;;;;;;9.55;2.03;;;8.90;99.90;;;;;;5041199;28;20037;-47
2023/01/02 12:03:53;;;;;;;10.13;1.90;;;8.80;99.90;;;;;;5042106;28;20103;-48
2023/01/02 12:06:29;;;;;;;9.80;1.83;;;8.80;99.90;;;;;;5040229;28;20148;-48
2023/01/02 12:09:35;;;;;;;11.70;2.30;;;9.00;99.90;;;;;;5026970;28;20115;-46
2023/01/02 12:12:10;;;;;;;8.85;1.77;;;9.00;99.90;;;;;;4983239;28;20062;-46
2023/01/02 12:14:54;;;;;;;11.38;3.05;;;9.10;99.90;;;;;;4969378;28;20046;-49
2023/01/02 12:17:50;;;;;;;11.25;2.65;;;9.30;99.90;;;;;;4980065;28;20457;-51
2023/01/02 12:20:15;;;;;;;10.30;2.80;;;9.30;99.90;;;;;;4982271;28;20064;-51
2023/01/02 12:22:50;;;;;;;12.13;2.50;;;9.20;99.90;;;;;;4989567;28;20796;-49
2023/01/02 12:25:25;;;;;;;12.57;2.88;;;9.30;99.90;;;;;;4983810;28;20562;-48
2023/01/02 12:28:00;;;;;;;12.32;2.60;;;9.30;99.90;;;;;;4980273;28;20077;-45
2023/01/02 12:30:31;;;;;;;12.07;2.70;;;9.30;99.90;;;;;;4992909;28;20583;-46
2023/01/02 12:32:59;;;;;;;12.63;2.55;;;9.30;99.90;;;;;;4972472;28;20133;-50
2023/01/02 12:35:45;;;;;;;14.88;2.75;;;9.30;99.90;;;;;;5006464;28;20048;-48
2023/01/02 12:38:35;;;;;;;9.73;2.05;;;9.30;99.90;;;;;;5062452;28;20044;-45
2023/01/02 12:41:09;;;;;;;14.90;2.22;;;9.30;99.90;;;;;;5010836;28;20464;-48
2023/01/02 12:44:05;;;;;;;10.10;2.70;;;9.20;99.90;;;;;;4995583;28;20061;-46
2023/01/02 12:46:47;;;;;;;13.88;2.70;;;9.20;99.90;;;;;;5010845;28;20060;-49
2023/01/02 12:49:22;;;;;;;15.15;3.10;;;9.20;99.90;;;;;;5040620;28;20096;-50
2023/01/02 12:52:00;;;;;;;15.23;2.78;;;9.10;99.90;;;;;;5063698;28;20086;-45
2023/01/02 12:54:45;;;;;;;18.65;3.20;;;9.20;99.90;;;;;;5062537;28;20718;-46
2023/01/02 12:57:32;;;;;;;15.65;4.43;;;9.20;99.90;;;;;;5069339;28;20152;-45
2023/01/02 13:00:00;;;;;;;12.05;3.63;;;9.20;99.90;;;;;;5069839;28;20052;-45
2023/01/02 13:02:41;;;;;;;19.40;3.42;;;9.20;99.90;;;;;;5060193;28;20048;-48
2023/01/02 13:05:13;;;;;;;13.50;2.53;;;9.20;99.90;;;;;;5064932;28;20132;-50